Time;durP1;ratioP1;P1;durP2;ratioP2;P2;SDS_P1;SDS_P2;PMS_P1;PMS_P2;Temp;Humidity;BMP_temperature;BMP_pressure;BME280_temperature;BME280_humidity;BME280_pressure;Samples;Min_cycle;Max_cycle;Signal;HPM_P1;HPM_P2
2021/03/08 00:00:37;;;;;;;;;;;15.90;59.70;;;;;;5054045;28;19920;-76
2021/03/08 00:03:04;;;;;;;;;;;15.90;59.70;;;;;;5055346;28;19962;-76
2021/03/08 00:05:31;;;;;;;;;;;15.90;59.70;;;;;;5074666;28;19919;-76
2021/03/08 00:07:56;;;;;;;;;;;15.90;59.80;;;;;;5055370;28;20278;-75
2021/03/08 00:10:22;;;;;;;;;;;15.90;59.80;;;;;;5056160;28;19912;-76
2021/03/08 00:12:48;;;;;;;;;;;15.90;59.80;;;;;;5068722;28;19952;-76
2021/03/08 00:15:14;;;;;;;;;;;15.90;59.80;;;;;;5067495;28;19920;-76
2021/03/08 00:17:40;;;;;;;;;;;15.90;59.80;;;;;;5047549;28;19921;-76
2021/03/08 00:20:07;;;;;;;;;;;15.90;59.80;;;;;;5055210;28;19912;-76
2021/03/08 00:22:33;;;;;;;;;;;15.90;59.70;;;;;;5068551;28;19919;-76
2021/03/08 00:24:58;;;;;;;;;;;15.90;59.80;;;;;;5054634;28;19917;-76
2021/03/08 00:27:24;;;;;;;;;;;15.80;59.80;;;;;;5071747;28;22259;-76
2021/03/08 00:29:49;;;;;;;;;;;15.90;59.80;;;;;;5049413;28;20372;-76
2021/03/08 00:32:15;;;;;;;;;;;15.90;59.80;;;;;;5053936;28;20361;-76
2021/03/08 00:34:41;;;;;;;;;;;15.90;59.80;;;;;;5055826;28;20383;-76
2021/03/08 00:37:09;;;;;;;;;;;15.90;59.70;;;;;;5069746;28;19916;-76
2021/03/08 00:39:34;;;;;;;;;;;15.90;59.80;;;;;;5066658;28;19913;-76
2021/03/08 00:42:00;;;;;;;;;;;15.90;59.80;;;;;;5068550;28;19986;-76
2021/03/08 00:44:25;;;;;;;;;;;15.90;59.80;;;;;;5073145;28;20005;-78
2021/03/08 00:46:51;;;;;;;;;;;15.90;59.80;;;;;;5071102;28;19975;-77
2021/03/08 00:49:16;;;;;;;;;;;15.90;59.80;;;;;;5068117;28;19912;-77
2021/03/08 00:51:42;;;;;;;;;;;15.90;59.80;;;;;;5068167;28;19913;-77
2021/03/08 00:54:08;;;;;;;;;;;15.90;59.80;;;;;;5071996;28;20620;-77
2021/03/08 00:56:33;;;;;;;;;;;15.80;59.80;;;;;;5072903;28;19920;-77
2021/03/08 00:58:59;;;;;;;;;;;15.90;59.80;;;;;;5070423;28;19912;-77
2021/03/08 01:01:24;;;;;;;;;;;15.90;59.80;;;;;;5050648;28;20374;-77
2021/03/08 01:03:50;;;;;;;;;;;15.90;59.80;;;;;;5057523;28;19908;-77
2021/03/08 01:06:15;;;;;;;;;;;15.80;59.80;;;;;;5052613;28;20015;-77
2021/03/08 01:08:41;;;;;;;;;;;15.90;59.80;;;;;;5054209;28;20030;-77
2021/03/08 01:11:06;;;;;;;;;;;15.90;59.80;;;;;;5072241;28;20369;-77
2021/03/08 01:13:32;;;;;;;;;;;15.80;59.80;;;;;;5071286;28;19913;-77
2021/03/08 01:15:57;;;;;;;;;;;15.90;59.80;;;;;;5050292;28;19924;-77
2021/03/08 01:18:23;;;;;;;;;;;15.90;59.90;;;;;;5071034;28;19926;-77
2021/03/08 01:20:49;;;;;;;;;;;15.90;59.90;;;;;;5069102;28;19916;-77
2021/03/08 01:23:17;;;;;;;;;;;15.80;59.80;;;;;;5053339;28;19951;-77
2021/03/08 01:25:43;;;;;;;;;;;15.80;59.80;;;;;;5068268;28;20416;-76
2021/03/08 01:28:08;;;;;;;;;;;15.80;59.80;;;;;;5042481;28;19921;-77
2021/03/08 01:30:41;;;;;;;;;;;15.90;59.90;;;;;;5069954;28;20027;-77
2021/03/08 01:33:07;;;;;;;;;;;15.90;59.90;;;;;;5070146;28;20317;-75
2021/03/08 01:35:33;;;;;;;;;;;15.90;59.90;;;;;;5053338;28;19912;-75
2021/03/08 01:37:58;;;;;;;;;;;15.80;59.90;;;;;;5071374;28;20361;-75
2021/03/08 01:40:25;;;;;;;;;;;15.80;59.90;;;;;;5068632;28;20011;-75
2021/03/08 01:42:54;;;;;;;;;;;15.80;59.90;;;;;;5045452;28;20011;-75
2021/03/08 01:45:20;;;;;;;;;;;15.90;59.90;;;;;;5071302;28;19963;-75
2021/03/08 01:47:49;;;;;;;;;;;15.80;59.90;;;;;;5051099;28;19917;-74
2021/03/08 01:50:17;;;;;;;;;;;15.90;59.90;;;;;;5053209;28;19940;-76
2021/03/08 01:52:43;;;;;;;;;;;15.80;59.90;;;;;;5052992;28;20419;-75
2021/03/08 01:55:09;;;;;;;;;;;15.80;59.90;;;;;;5053533;28;19909;-75
2021/03/08 01:57:34;;;;;;;;;;;15.80;59.90;;;;;;5050897;28;19930;-75
2021/03/08 02:00:00;;;;;;;;;;;15.80;59.90;;;;;;5067568;28;19936;-76
2021/03/08 02:02:26;;;;;;;;;;;15.80;59.90;;;;;;5042288;28;20538;-76
2021/03/08 02:04:51;;;;;;;;;;;15.80;60.00;;;;;;5071649;28;19909;-75
2021/03/08 02:07:17;;;;;;;;;;;15.80;60.00;;;;;;5053809;28;19920;-75
2021/03/08 02:09:42;;;;;;;;;;;15.80;59.90;;;;;;5048007;28;19924;-76
2021/03/08 02:12:14;;;;;;;;;;;15.80;59.90;;;;;;5068731;28;20376;-75
2021/03/08 02:14:42;;;;;;;;;;;15.80;60.00;;;;;;5043385;28;19916;-75
2021/03/08 02:17:12;;;;;;;;;;;15.80;59.90;;;;;;5065689;28;19920;-75
2021/03/08 02:19:56;;;;;;;;;;;15.80;60.00;;;;;;5068398;28;20400;-76
2021/03/08 02:22:34;;;;;;;;;;;15.80;60.00;;;;;;5071747;28;19974;-75
2021/03/08 02:25:18;;;;;;;;;;;15.80;60.00;;;;;;5052940;28;19924;-75
2021/03/08 02:28:03;;;;;;;;;;;15.80;60.00;;;;;;5040496;28;19920;-75
2021/03/08 02:30:42;;;;;;;;;;;15.80;60.00;;;;;;5050001;28;19912;-75
2021/03/08 02:33:09;;;;;;;;;;;15.80;60.00;;;;;;5049834;28;19916;-75
2021/03/08 02:35:42;;;;;;;;;;;15.80;60.00;;;;;;5069918;28;21791;-75
2021/03/08 02:38:13;;;;;;;;;;;15.80;60.00;;;;;;5066693;28;19920;-76
2021/03/08 02:40:44;;;;;;;;;;;15.80;60.00;;;;;;5062303;28;19970;-76
2021/03/08 02:43:36;;;;;;;;;;;15.80;60.00;;;;;;5049124;28;19916;-76
2021/03/08 02:46:05;;;;;;;;;;;15.80;60.00;;;;;;5015649;28;19966;-75
2021/03/08 02:48:32;;;;;;;;;;;15.80;60.00;;;;;;5066669;28;19913;-76
2021/03/08 02:50:58;;;;;;;;;;;15.80;60.00;;;;;;5045445;28;19912;-75
2021/03/08 02:53:26;;;;;;;;;;;15.80;60.00;;;;;;5057086;28;19912;-75
2021/03/08 02:56:01;;;;;;;;;;;15.80;60.00;;;;;;5065669;28;19917;-75
2021/03/08 02:58:28;;;;;;;;;;;15.80;60.00;;;;;;5071091;28;19928;-75
2021/03/08 03:00:53;;;;;;;;;;;15.80;60.00;;;;;;5067684;28;19913;-75
2021/03/08 03:03:20;;;;;;;;;;;15.80;60.10;;;;;;5049693;28;19916;-76
2021/03/08 03:05:46;;;;;;;;;;;15.80;60.10;;;;;;5051852;28;20004;-75
2021/03/08 03:08:13;;;;;;;;;;;15.80;60.10;;;;;;5074321;28;19913;-75
2021/03/08 03:10:39;;;;;;;;;;;15.80;60.10;;;;;;5052232;28;20781;-75
2021/03/08 03:13:05;;;;;;;;;;;15.80;60.10;;;;;;5073245;28;19917;-76
2021/03/08 03:15:35;;;;;;;;;;;15.80;60.10;;;;;;5073377;28;20021;-75
2021/03/08 03:18:01;;;;;;;;;;;15.80;60.10;;;;;;5074164;28;19925;-75
2021/03/08 03:20:27;;;;;;;;;;;15.80;60.10;;;;;;5070677;28;19919;-75
2021/03/08 03:22:53;;;;;;;;;;;15.80;60.10;;;;;;5074097;28;19918;-75
2021/03/08 03:25:21;;;;;;;;;;;15.80;60.10;;;;;;5057377;28;19995;-75
2021/03/08 03:27:47;;;;;;;;;;;15.80;60.10;;;;;;5072287;28;20287;-75
2021/03/08 03:30:14;;;;;;;;;;;15.80;60.10;;;;;;5057059;28;20319;-75
2021/03/08 03:32:43;;;;;;;;;;;15.80;60.10;;;;;;5033922;28;19917;-74
2021/03/08 03:35:10;;;;;;;;;;;15.80;60.00;;;;;;5050744;28;19913;-75
2021/03/08 03:37:36;;;;;;;;;;;15.80;60.10;;;;;;5054150;28;19920;-75
2021/03/08 03:40:02;;;;;;;;;;;15.80;60.10;;;;;;5074189;28;19912;-76
2021/03/08 03:42:28;;;;;;;;;;;15.80;60.10;;;;;;5073044;28;19913;-75
2021/03/08 03:44:53;;;;;;;;;;;15.80;60.10;;;;;;5072587;28;19912;-75
2021/03/08 03:47:19;;;;;;;;;;;15.80;60.10;;;;;;5073259;28;19916;-75
2021/03/08 03:49:45;;;;;;;;;;;15.80;60.10;;;;;;5055628;28;20000;-75
2021/03/08 03:52:10;;;;;;;;;;;15.80;60.10;;;;;;5074106;28;19912;-75
2021/03/08 03:54:36;;;;;;;;;;;15.80;60.10;;;;;;5072597;28;19913;-75
2021/03/08 03:57:04;;;;;;;;;;;15.80;60.10;;;;;;5064923;28;19921;-75
2021/03/08 03:59:39;;;;;;;;;;;15.80;60.20;;;;;;5068965;28;19939;-75
2021/03/08 04:02:17;;;;;;;;;;;15.80;60.10;;;;;;5070138;28;19920;-75
2021/03/08 04:04:50;;;;;;;;;;;15.80;60.20;;;;;;5073082;28;20278;-75
2021/03/08 04:07:17;;;;;;;;;;;15.80;60.20;;;;;;5067531;28;19913;-75
2021/03/08 04:09:45;;;;;;;;;;;15.80;60.20;;;;;;5053952;28;20026;-75
2021/03/08 04:12:11;;;;;;;;;;;15.80;60.20;;;;;;5068606;28;19921;-75
2021/03/08 04:14:37;;;;;;;;;;;15.80;60.20;;;;;;5052500;28;19948;-75
2021/03/08 04:17:03;;;;;;;;;;;15.80;60.20;;;;;;5069163;28;19959;-76
2021/03/08 04:19:29;;;;;;;;;;;15.80;60.20;;;;;;5069623;28;20269;-76
2021/03/08 04:21:59;;;;;;;;;;;15.80;60.20;;;;;;5073840;28;19916;-76
2021/03/08 04:24:25;;;;;;;;;;;15.80;60.20;;;;;;5071366;28;19920;-76
2021/03/08 04:26:51;;;;;;;;;;;15.80;60.20;;;;;;5066304;28;19916;-77
2021/03/08 04:29:18;;;;;;;;;;;15.80;60.20;;;;;;5049629;28;19920;-76
2021/03/08 04:31:43;;;;;;;;;;;15.80;60.20;;;;;;5054532;28;20246;-75
2021/03/08 04:34:12;;;;;;;;;;;15.80;60.20;;;;;;5072298;28;19925;-76
2021/03/08 04:36:39;;;;;;;;;;;15.80;60.20;;;;;;5053927;28;19928;-76
2021/03/08 04:39:05;;;;;;;;;;;15.80;60.20;;;;;;5051743;28;19962;-76
2021/03/08 04:41:31;;;;;;;;;;;15.80;60.20;;;;;;5068881;28;20338;-75
2021/03/08 04:43:57;;;;;;;;;;;15.80;60.20;;;;;;5072834;28;19966;-75
2021/03/08 04:46:22;;;;;;;;;;;15.80;60.30;;;;;;5071468;28;19920;-76
2021/03/08 04:48:48;;;;;;;;;;;15.80;60.20;;;;;;5052599;28;19935;-76
2021/03/08 04:51:15;;;;;;;;;;;15.70;60.30;;;;;;5054802;28;19923;-76
2021/03/08 04:53:40;;;;;;;;;;;15.80;60.30;;;;;;5054412;28;19916;-76
2021/03/08 04:56:06;;;;;;;;;;;15.80;60.30;;;;;;5071903;28;19957;-76
2021/03/08 04:58:32;;;;;;;;;;;15.80;60.30;;;;;;5043781;28;20003;-76
2021/03/08 05:00:58;;;;;;;;;;;15.80;60.30;;;;;;5052124;28;19912;-76
2021/03/08 05:03:24;;;;;;;;;;;15.80;60.30;;;;;;5071011;28;19912;-76
2021/03/08 05:05:50;;;;;;;;;;;15.80;60.30;;;;;;5054347;28;19961;-76
2021/03/08 05:08:16;;;;;;;;;;;15.80;60.30;;;;;;5050953;28;19912;-76
2021/03/08 05:10:41;;;;;;;;;;;15.80;60.30;;;;;;5052657;28;20273;-75
2021/03/08 05:13:08;;;;;;;;;;;15.80;60.30;;;;;;5070319;28;19920;-76
2021/03/08 05:15:34;;;;;;;;;;;15.80;60.30;;;;;;5046230;28;20083;-76
2021/03/08 05:18:00;;;;;;;;;;;15.80;60.30;;;;;;5052533;28;20010;-76
2021/03/08 05:20:26;;;;;;;;;;;15.80;60.30;;;;;;5053182;28;19961;-76
2021/03/08 05:22:53;;;;;;;;;;;15.70;60.30;;;;;;5053332;28;19952;-77
2021/03/08 05:25:19;;;;;;;;;;;15.80;60.30;;;;;;5053686;28;19993;-75
2021/03/08 05:27:45;;;;;;;;;;;15.80;60.40;;;;;;5053602;28;20026;-76
2021/03/08 05:30:14;;;;;;;;;;;15.70;60.40;;;;;;5071478;28;20073;-76
2021/03/08 05:32:48;;;;;;;;;;;15.70;60.30;;;;;;5067355;28;19971;-75
2021/03/08 05:35:15;;;;;;;;;;;15.70;60.40;;;;;;5071906;28;20370;-76
2021/03/08 05:37:41;;;;;;;;;;;15.70;60.40;;;;;;5070783;28;19920;-76
2021/03/08 05:40:11;;;;;;;;;;;15.70;60.40;;;;;;5069697;28;19913;-76
2021/03/08 05:42:38;;;;;;;;;;;15.80;60.40;;;;;;5069350;28;20011;-76
2021/03/08 05:45:08;;;;;;;;;;;15.70;60.40;;;;;;5064619;28;20342;-75
2021/03/08 05:47:41;;;;;;;;;;;15.80;60.40;;;;;;5050557;28;20344;-77
2021/03/08 05:50:26;;;;;;;;;;;15.70;60.40;;;;;;5070840;28;19920;-76
2021/03/08 05:53:18;;;;;;;;;;;15.70;60.40;;;;;;5054166;28;19913;-76
2021/03/08 05:55:52;;;;;;;;;;;15.70;60.40;;;;;;5070220;28;19966;-76
2021/03/08 05:58:21;;;;;;;;;;;15.70;60.40;;;;;;5067661;28;20347;-76
2021/03/08 06:01:00;;;;;;;;;;;15.70;60.40;;;;;;5052110;28;20066;-75
2021/03/08 06:03:51;;;;;;;;;;;15.70;60.40;;;;;;5064631;28;19919;-75
2021/03/08 06:06:17;;;;;;;;;;;15.70;60.30;;;;;;5046578;28;19912;-76
2021/03/08 06:09:18;;;;;;;;;;;15.80;60.40;;;;;;5051459;28;20364;-75
2021/03/08 06:11:45;;;;;;;;;;;15.70;60.40;;;;;;4967422;28;19914;-75
2021/03/08 06:14:14;;;;;;;;;;;15.70;60.40;;;;;;5049704;28;19991;-75
2021/03/08 06:16:44;;;;;;;;;;;15.70;60.40;;;;;;5069399;28;19948;-75
2021/03/08 06:19:10;;;;;;;;;;;15.70;60.40;;;;;;5068866;28;19947;-75
2021/03/08 06:21:36;;;;;;;;;;;15.80;60.30;;;;;;5072200;28;20030;-76
2021/03/08 06:24:03;;;;;;;;;;;15.80;60.40;;;;;;5071682;28;19919;-76
2021/03/08 06:26:29;;;;;;;;;;;15.80;60.30;;;;;;5071169;28;19921;-75
2021/03/08 06:28:55;;;;;;;;;;;15.70;60.30;;;;;;5071166;28;19921;-75
2021/03/08 06:31:21;;;;;;;;;;;15.70;60.30;;;;;;5069995;28;20235;-75
2021/03/08 06:33:47;;;;;;;;;;;15.80;60.30;;;;;;5053425;28;19912;-76
2021/03/08 06:36:13;;;;;;;;;;;15.80;60.30;;;;;;5071324;28;19919;-76
2021/03/08 06:38:39;;;;;;;;;;;15.80;60.30;;;;;;5052250;28;19927;-76
2021/03/08 06:41:06;;;;;;;;;;;15.80;60.30;;;;;;5050218;28;20304;-75
2021/03/08 06:43:32;;;;;;;;;;;15.80;60.30;;;;;;5049802;28;19912;-76
2021/03/08 06:45:58;;;;;;;;;;;15.80;60.30;;;;;;5047412;28;20388;-75
2021/03/08 06:48:23;;;;;;;;;;;15.80;60.30;;;;;;5053029;28;19919;-76
2021/03/08 06:51:07;;;;;;;;;;;15.80;60.30;;;;;;5053391;28;21869;-76
2021/03/08 06:53:33;;;;;;;;;;;15.80;60.30;;;;;;5070357;28;19912;-76
2021/03/08 06:56:11;;;;;;;;;;;15.80;60.20;;;;;;5054023;28;20285;-75
2021/03/08 06:58:37;;;;;;;;;;;15.80;60.30;;;;;;5070400;28;19972;-75
2021/03/08 07:01:02;;;;;;;;;;;15.80;60.30;;;;;;5070894;28;20002;-75
2021/03/08 07:03:29;;;;;;;;;;;15.80;60.30;;;;;;5051738;28;20049;-76
2021/03/08 07:05:54;;;;;;;;;;;15.80;60.20;;;;;;5051232;28;19920;-76
2021/03/08 07:08:23;;;;;;;;;;;15.80;60.20;;;;;;5068945;28;19917;-76
2021/03/08 07:10:49;;;;;;;;;;;15.80;60.20;;;;;;5044874;28;20047;-75
2021/03/08 07:13:14;;;;;;;;;;;15.80;60.10;;;;;;5064948;28;20340;-75
2021/03/08 07:15:56;;;;;;;;;;;15.80;60.10;;;;;;5042767;28;19923;-75
2021/03/08 07:18:22;;;;;;;;;;;15.80;60.10;;;;;;5070019;28;19928;-75
2021/03/08 07:20:54;;;;;;;;;;;15.80;60.10;;;;;;5066992;28;19921;-76
2021/03/08 07:23:23;;;;;;;;;;;15.80;60.10;;;;;;5045703;28;20376;-75
2021/03/08 07:26:03;;;;;;;;;;;15.80;60.00;;;;;;5047538;28;20285;-76
2021/03/08 07:28:29;;;;;;;;;;;15.80;60.00;;;;;;5045500;28;19921;-75
2021/03/08 07:30:54;;;;;;;;;;;15.80;60.00;;;;;;5048810;28;20388;-75
2021/03/08 07:33:20;;;;;;;;;;;15.80;60.00;;;;;;5060600;28;19955;-75
2021/03/08 07:35:46;;;;;;;;;;;15.80;59.90;;;;;;5051282;28;20007;-76
2021/03/08 07:38:13;;;;;;;;;;;15.80;59.90;;;;;;5051917;28;19920;-75
2021/03/08 07:40:40;;;;;;;;;;;15.90;59.90;;;;;;5051546;28;19928;-76
2021/03/08 07:43:05;;;;;;;;;;;15.90;59.90;;;;;;5051724;28;20623;-76
2021/03/08 07:45:41;;;;;;;;;;;15.90;59.90;;;;;;5073160;28;19913;-76
2021/03/08 07:48:08;;;;;;;;;;;15.90;59.90;;;;;;5054381;28;19912;-76
2021/03/08 07:50:33;;;;;;;;;;;15.90;59.90;;;;;;5069522;28;19920;-76
2021/03/08 07:52:59;;;;;;;;;;;15.90;59.90;;;;;;5066763;28;19924;-76
2021/03/08 07:55:35;;;;;;;;;;;15.90;59.80;;;;;;5072984;28;19920;-76
2021/03/08 07:58:01;;;;;;;;;;;15.90;59.80;;;;;;5073475;28;19947;-77
2021/03/08 08:00:28;;;;;;;;;;;15.90;59.80;;;;;;5073261;28;19956;-76
2021/03/08 08:02:54;;;;;;;;;;;15.90;59.80;;;;;;5055516;28;20576;-76
2021/03/08 08:05:19;;;;;;;;;;;15.90;59.80;;;;;;5072994;28;19921;-76
2021/03/08 08:07:45;;;;;;;;;;;15.90;59.80;;;;;;5059176;28;19912;-75
2021/03/08 08:10:14;;;;;;;;;;;15.90;59.80;;;;;;5073439;28;20373;-75
2021/03/08 08:12:42;;;;;;;;;;;15.90;59.80;;;;;;5070943;28;19961;-76
2021/03/08 08:15:12;;;;;;;;;;;15.90;59.80;;;;;;5069108;28;19927;-76
2021/03/08 08:17:40;;;;;;;;;;;15.90;59.80;;;;;;5055454;28;19921;-76
2021/03/08 08:20:06;;;;;;;;;;;15.90;59.80;;;;;;5052797;28;19912;-75
2021/03/08 08:22:33;;;;;;;;;;;16.00;59.80;;;;;;5050392;28;20419;-76
2021/03/08 08:25:01;;;;;;;;;;;16.00;59.70;;;;;;5069138;28;19913;-76
2021/03/08 08:27:26;;;;;;;;;;;16.00;59.70;;;;;;5050493;28;20030;-76
2021/03/08 08:29:52;;;;;;;;;;;15.90;59.80;;;;;;5070976;28;20336;-77
2021/03/08 08:32:18;;;;;;;;;;;16.00;59.70;;;;;;5048801;28;20498;-76
2021/03/08 08:34:44;;;;;;;;;;;16.00;59.80;;;;;;5070129;28;20413;-76
2021/03/08 08:37:18;;;;;;;;;;;16.00;59.80;;;;;;5054227;28;19928;-76
2021/03/08 08:39:53;;;;;;;;;;;15.90;59.80;;;;;;5053476;28;19942;-77
2021/03/08 08:42:18;;;;;;;;;;;15.90;59.80;;;;;;5054875;28;20011;-77
2021/03/08 08:44:45;;;;;;;;;;;16.00;59.80;;;;;;5054617;28;19987;-76
2021/03/08 08:47:17;;;;;;;;;;;16.00;59.80;;;;;;5069251;28;19919;-77
2021/03/08 08:49:47;;;;;;;;;;;16.00;59.80;;;;;;5056226;28;19946;-74
2021/03/08 08:52:13;;;;;;;;;;;16.00;59.80;;;;;;5054441;28;20284;-76
2021/03/08 08:54:38;;;;;;;;;;;15.90;59.80;;;;;;5070023;28;19983;-76
2021/03/08 08:57:04;;;;;;;;;;;16.00;59.80;;;;;;5054658;28;19958;-76
2021/03/08 08:59:33;;;;;;;;;;;15.90;59.80;;;;;;5072997;28;19952;-76
2021/03/08 09:02:12;;;;;;;;;;;15.90;59.90;;;;;;5067049;28;19982;-76
2021/03/08 09:04:38;;;;;;;;;;;15.90;59.90;;;;;;5040660;28;20416;-77
2021/03/08 09:07:22;;;;;;;;;;;15.90;59.90;;;;;;5055020;28;19916;-77
2021/03/08 09:09:51;;;;;;;;;;;16.00;59.80;;;;;;5046823;28;19926;-76
2021/03/08 09:12:26;;;;;;;;;;;16.00;59.80;;;;;;5047851;28;19920;-77
2021/03/08 09:14:55;;;;;;;;;;;16.00;59.80;;;;;;5069573;28;19919;-77
2021/03/08 09:17:27;;;;;;;;;;;16.00;59.80;;;;;;5048092;28;19937;-77
2021/03/08 09:19:55;;;;;;;;;;;16.00;59.70;;;;;;5048533;28;19924;-77
2021/03/08 09:22:27;;;;;;;;;;;16.00;59.70;;;;;;5066027;28;19995;-76
2021/03/08 09:24:56;;;;;;;;;;;16.00;59.70;;;;;;5065822;28;20369;-76
2021/03/08 09:27:21;;;;;;;;;;;16.00;59.70;;;;;;5048235;28;20357;-76
2021/03/08 09:29:47;;;;;;;;;;;16.00;59.60;;;;;;5048166;28;19924;-77
2021/03/08 09:32:13;;;;;;;;;;;16.10;59.50;;;;;;5071307;28;19927;-76
2021/03/08 09:34:38;;;;;;;;;;;16.10;59.50;;;;;;5070876;28;19916;-76
2021/03/08 09:37:04;;;;;;;;;;;16.00;59.40;;;;;;5070354;28;19924;-77
2021/03/08 09:39:30;;;;;;;;;;;16.10;59.40;;;;;;5070057;28;19923;-76
2021/03/08 09:41:56;;;;;;;;;;;16.10;59.40;;;;;;5049965;28;20266;-76
2021/03/08 09:44:21;;;;;;;;;;;16.10;59.40;;;;;;5039709;28;20369;-77
2021/03/08 09:46:54;;;;;;;;;;;16.10;59.40;;;;;;5063682;28;19920;-77
2021/03/08 09:49:19;;;;;;;;;;;16.10;59.50;;;;;;5049138;28;19924;-76
2021/03/08 09:51:45;;;;;;;;;;;16.00;59.60;;;;;;5054213;28;20042;-76
2021/03/08 09:54:10;;;;;;;;;;;16.00;59.60;;;;;;5070478;28;19920;-76
2021/03/08 09:56:39;;;;;;;;;;;16.00;59.60;;;;;;5049502;28;19913;-76
2021/03/08 09:59:08;;;;;;;;;;;16.00;59.70;;;;;;5070170;28;19924;-76
2021/03/08 10:01:34;;;;;;;;;;;16.00;59.70;;;;;;5052577;28;20400;-76
2021/03/08 10:03:59;;;;;;;;;;;16.00;59.70;;;;;;5051742;28;19916;-76
2021/03/08 10:06:25;;;;;;;;;;;16.00;59.70;;;;;;5071522;28;19943;-77
2021/03/08 10:08:50;;;;;;;;;;;16.00;59.70;;;;;;5053833;28;19963;-76
2021/03/08 10:11:25;;;;;;;;;;;16.00;59.70;;;;;;5048171;28;20373;-77
2021/03/08 10:13:51;;;;;;;;;;;16.00;59.70;;;;;;5047066;28;19944;-76
2021/03/08 10:16:21;;;;;;;;;;;16.00;59.80;;;;;;5067647;28;19966;-76
2021/03/08 10:18:46;;;;;;;;;;;16.00;59.70;;;;;;5064502;28;19936;-77
2021/03/08 10:21:12;;;;;;;;;;;16.00;59.70;;;;;;5051432;28;19916;-75
2021/03/08 10:23:37;;;;;;;;;;;16.00;59.70;;;;;;5053018;28;19951;-76
2021/03/08 10:26:03;;;;;;;;;;;16.00;59.70;;;;;;5070652;28;19912;-76
2021/03/08 10:28:42;;;;;;;;;;;16.00;59.70;;;;;;5045455;28;20007;-76
2021/03/08 10:31:27;;;;;;;;;;;16.00;59.70;;;;;;5048435;28;20047;-75
2021/03/08 10:33:57;;;;;;;;;;;16.10;59.60;;;;;;5064917;28;19913;-76
2021/03/08 10:36:24;;;;;;;;;;;16.00;59.60;;;;;;5066541;28;19913;-76
2021/03/08 10:39:11;;;;;;;;;;;16.00;59.60;;;;;;5047879;28;21319;-75
2021/03/08 10:41:38;;;;;;;;;;;16.00;59.60;;;;;;5048309;28;19921;-75
2021/03/08 10:44:04;;;;;;;;;;;16.10;59.50;;;;;;5048356;28;19919;-75
2021/03/08 10:46:36;;;;;;;;;;;16.10;59.50;;;;;;5070937;28;19912;-75
2021/03/08 10:49:03;;;;;;;;;;;16.10;59.50;;;;;;5069245;28;19958;-76
2021/03/08 10:51:29;;;;;;;;;;;16.10;59.50;;;;;;5046594;28;19917;-76
2021/03/08 10:53:55;;;;;;;;;;;16.10;59.40;;;;;;5045483;28;20362;-76
2021/03/08 10:56:21;;;;;;;;;;;16.10;59.40;;;;;;5053086;28;20012;-76
2021/03/08 10:58:47;;;;;;;;;;;16.20;59.30;;;;;;5050963;28;19916;-76
2021/03/08 11:01:12;;;;;;;;;;;16.10;59.20;;;;;;5049170;28;19916;-76
2021/03/08 11:03:41;;;;;;;;;;;16.20;59.20;;;;;;5068402;28;19958;-76
2021/03/08 11:06:08;;;;;;;;;;;16.20;59.20;;;;;;5051370;28;20012;-76
2021/03/08 11:08:34;;;;;;;;;;;16.20;59.20;;;;;;5054034;28;19912;-76
2021/03/08 11:11:00;;;;;;;;;;;16.20;59.30;;;;;;5064051;28;20437;-76
2021/03/08 11:13:32;;;;;;;;;;;16.20;59.30;;;;;;5052135;28;19928;-76
2021/03/08 11:16:10;;;;;;;;;;;16.10;59.30;;;;;;5049452;28;19920;-76
2021/03/08 11:18:36;;;;;;;;;;;16.10;59.30;;;;;;5069252;28;19923;-76
2021/03/08 11:21:18;;;;;;;;;;;16.20;59.30;;;;;;5046513;28;19916;-77
2021/03/08 11:23:43;;;;;;;;;;;16.10;59.40;;;;;;5072211;28;19912;-76
2021/03/08 11:26:09;;;;;;;;;;;16.10;59.40;;;;;;5057499;28;20320;-76
2021/03/08 11:28:39;;;;;;;;;;;16.10;59.40;;;;;;5074908;28;19952;-76
2021/03/08 11:31:05;;;;;;;;;;;16.10;59.40;;;;;;5074126;28;20000;-76
2021/03/08 11:33:37;;;;;;;;;;;16.10;59.40;;;;;;5069917;28;20003;-75
2021/03/08 11:36:02;;;;;;;;;;;16.10;59.40;;;;;;5073849;28;19948;-76
2021/03/08 11:38:28;;;;;;;;;;;16.10;59.50;;;;;;5075156;28;19966;-76
2021/03/08 11:40:54;;;;;;;;;;;16.10;59.40;;;;;;5054563;28;19967;-76
2021/03/08 11:43:21;;;;;;;;;;;16.20;59.40;;;;;;5064682;28;19952;-76
2021/03/08 11:45:47;;;;;;;;;;;16.20;59.20;;;;;;5055986;28;19919;-76
2021/03/08 11:48:13;;;;;;;;;;;16.20;59.20;;;;;;5058974;28;19912;-76
2021/03/08 11:50:39;;;;;;;;;;;16.30;59.10;;;;;;5051026;28;20400;-75
2021/03/08 11:53:05;;;;;;;;;;;16.30;59.10;;;;;;5069577;28;19962;-79
2021/03/08 11:55:31;;;;;;;;;;;16.20;59.10;;;;;;5071913;28;19916;-76
2021/03/08 11:57:56;;;;;;;;;;;16.20;59.20;;;;;;5051836;28;19981;-76
2021/03/08 12:00:24;;;;;;;;;;;16.30;59.20;;;;;;5071548;28;20016;-78
2021/03/08 12:02:50;;;;;;;;;;;16.30;59.70;;;;;;5051603;28;19920;-78
2021/03/08 12:05:16;;;;;;;;;;;16.30;59.70;;;;;;5049833;28;20006;-78
2021/03/08 12:07:41;;;;;;;;;;;16.30;60.30;;;;;;5065681;28;19995;-79
2021/03/08 12:10:07;;;;;;;;;;;16.40;61.20;;;;;;5067114;28;20694;-78
2021/03/08 12:12:34;;;;;;;;;;;16.50;62.10;;;;;;5049542;28;19958;-80
2021/03/08 12:14:59;;;;;;;;;;;16.50;63.70;;;;;;5068426;28;19912;-80
2021/03/08 12:17:25;;;;;;;;;;;16.60;64.10;;;;;;5051175;28;20401;-78
2021/03/08 12:19:51;;;;;;;;;;;16.60;65.40;;;;;;5044574;28;19917;-79
2021/03/08 12:22:17;;;;;;;;;;;16.60;66.90;;;;;;5064684;28;19920;-78
2021/03/08 12:24:42;;;;;;;;;;;16.70;68.10;;;;;;5053107;28;19939;-78
2021/03/08 12:27:08;;;;;;;;;;;16.70;70.30;;;;;;5068776;28;19950;-79
2021/03/08 12:29:33;;;;;;;;;;;16.70;70.80;;;;;;5067730;28;19921;-79
2021/03/08 12:32:02;;;;;;;;;;;16.70;73.80;;;;;;5048964;28;19912;-78
2021/03/08 12:34:27;;;;;;;;;;;16.80;73.70;;;;;;5051464;28;19912;-78
2021/03/08 12:36:53;;;;;;;;;;;16.80;75.80;;;;;;5069867;28;19938;-78
2021/03/08 12:39:18;;;;;;;;;;;16.80;75.90;;;;;;5064313;28;19916;-78
2021/03/08 12:41:45;;;;;;;;;;;16.80;77.80;;;;;;5049056;28;20424;-78
2021/03/08 12:44:10;;;;;;;;;;;16.80;78.60;;;;;;5047055;28;19922;-77
2021/03/08 12:46:36;;;;;;;;;;;16.80;80.00;;;;;;5068930;28;19912;-77
2021/03/08 12:49:02;;;;;;;;;;;16.90;79.80;;;;;;5064918;28;20281;-83
2021/03/08 12:51:27;;;;;;;;;;;16.90;74.40;;;;;;5063918;28;19917;-79
2021/03/08 12:53:53;;;;;;;;;;;16.90;72.70;;;;;;5048073;28;19912;-79
2021/03/08 12:56:18;;;;;;;;;;;16.90;70.00;;;;;;5051619;28;19920;-79
2021/03/08 12:58:44;;;;;;;;;;;16.80;68.90;;;;;;5047661;28;19924;-81
2021/03/08 13:01:09;;;;;;;;;;;16.80;68.20;;;;;;5065467;28;20024;-81
2021/03/08 13:03:35;;;;;;;;;;;16.80;67.60;;;;;;5049378;28;19920;-80
2021/03/08 13:06:01;;;;;;;;;;;16.80;67.40;;;;;;5067481;28;19923;-79
2021/03/08 13:08:26;;;;;;;;;;;16.80;66.50;;;;;;5050792;28;20349;-82
2021/03/08 13:10:52;;;;;;;;;;;16.80;66.30;;;;;;5043582;28;19912;-81
2021/03/08 13:13:21;;;;;;;;;;;16.70;65.90;;;;;;5047808;28;19926;-79
2021/03/08 13:15:50;;;;;;;;;;;16.70;65.70;;;;;;5053117;28;20346;-82
2021/03/08 13:18:17;;;;;;;;;;;16.70;65.90;;;;;;5066728;28;19962;-81
2021/03/08 13:20:42;;;;;;;;;;;16.70;65.30;;;;;;5054200;28;19962;-80
2021/03/08 13:23:09;;;;;;;;;;;16.80;65.00;;;;;;5072561;28;20003;-82
2021/03/08 13:25:35;;;;;;;;;;;16.80;64.80;;;;;;5072383;28;19912;-82
2021/03/08 13:28:01;;;;;;;;;;;16.80;64.40;;;;;;5048655;28;19925;-81
2021/03/08 13:30:27;;;;;;;;;;;16.80;64.20;;;;;;5053899;28;19912;-82
2021/03/08 13:32:52;;;;;;;;;;;16.80;63.80;;;;;;5036074;28;20377;-81
2021/03/08 13:35:18;;;;;;;;;;;16.80;63.90;;;;;;5069433;28;19913;-82
2021/03/08 13:37:44;;;;;;;;;;;16.80;63.60;;;;;;5066477;28;19916;-81
2021/03/08 13:40:10;;;;;;;;;;;16.80;63.50;;;;;;5067318;28;19921;-82
2021/03/08 13:42:36;;;;;;;;;;;16.80;63.30;;;;;;5053704;28;19924;-81
2021/03/08 13:45:03;;;;;;;;;;;16.80;63.30;;;;;;5066543;28;19912;-82
2021/03/08 13:47:29;;;;;;;;;;;16.80;63.00;;;;;;5069718;28;20003;-81
2021/03/08 13:49:54;;;;;;;;;;;16.80;62.80;;;;;;5042912;28;20448;-82
2021/03/08 13:52:20;;;;;;;;;;;16.80;62.70;;;;;;5067632;28;19981;-82
2021/03/08 13:54:46;;;;;;;;;;;16.80;62.50;;;;;;5066793;28;19916;-82
2021/03/08 13:57:12;;;;;;;;;;;16.80;62.40;;;;;;5045807;28;19916;-82
2021/03/08 13:59:37;;;;;;;;;;;16.80;62.40;;;;;;5066306;28;19916;-80
2021/03/08 14:02:03;;;;;;;;;;;16.80;62.20;;;;;;5048273;28;19920;-81
2021/03/08 14:04:29;;;;;;;;;;;16.80;62.10;;;;;;5047866;28;20314;-80
2021/03/08 14:06:54;;;;;;;;;;;16.80;62.00;;;;;;5047894;28;20291;-81
2021/03/08 14:09:20;;;;;;;;;;;16.80;61.90;;;;;;5047485;28;20011;-81
2021/03/08 14:11:45;;;;;;;;;;;16.80;61.70;;;;;;5049633;28;20282;-80
2021/03/08 14:14:11;;;;;;;;;;;16.80;61.60;;;;;;5069080;28;19944;-81
2021/03/08 14:16:36;;;;;;;;;;;16.80;61.50;;;;;;5068291;28;19919;-80
2021/03/08 14:19:02;;;;;;;;;;;16.80;62.40;;;;;;5069036;28;19916;-81